Time;durP1;ratioP1;P1;durP2;ratioP2;P2;SDS_P1;SDS_P2;PMS_P1;PMS_P2;Temp;Humidity;BMP_temperature;BMP_pressure;BME280_temperature;BME280_humidity;BME280_pressure;Samples;Min_cycle;Max_cycle;Signal;HPM_P1;HPM_P2
2023/07/04 00:01:23;;;;;;;3.90;0.45;;;;;;;13.75;66.21;99659.56;6089646;23;20026;-72
2023/07/04 00:03:52;;;;;;;12.95;1.48;;;;;;;13.72;66.15;99663.19;6090499;23;20079;-72
2023/07/04 00:06:19;;;;;;;13.27;1.20;;;;;;;13.71;66.05;99663.25;6089805;23;20026;-72
2023/07/04 00:08:48;;;;;;;3.83;1.30;;;;;;;13.63;65.74;99652.28;6090614;23;20026;-72
2023/07/04 00:11:15;;;;;;;4.97;1.05;;;;;;;13.65;65.90;99659.16;6088256;23;20023;-72
2023/07/04 00:13:43;;;;;;;4.20;0.50;;;;;;;13.60;65.94;99645.41;6089445;23;20030;-72
2023/07/04 00:16:13;;;;;;;4.38;0.50;;;;;;;13.64;65.72;99657.47;6086513;23;20050;-72
2023/07/04 00:18:41;;;;;;;8.60;1.23;;;;;;;13.62;65.92;99663.72;6090705;23;20030;-73
2023/07/04 00:21:13;;;;;;;4.95;0.55;;;;;;;13.60;65.82;99665.56;6088790;23;20023;-72
2023/07/04 00:23:45;;;;;;;6.03;0.63;;;;;;;13.58;65.68;99663.03;6090782;23;20097;-73
2023/07/04 00:26:14;;;;;;;4.43;0.65;;;;;;;13.56;65.66;99664.84;6089972;23;20440;-72
2023/07/04 00:28:42;;;;;;;4.72;0.68;;;;;;;13.54;65.93;99666.69;6088166;23;20023;-73
2023/07/04 00:31:14;;;;;;;3.75;0.60;;;;;;;13.53;65.85;99669.41;6086010;23;20577;-72
2023/07/04 00:33:41;;;;;;;2.25;0.68;;;;;;;13.50;65.56;99663.38;6089469;23;20026;-72
2023/07/04 00:36:10;;;;;;;4.05;0.40;;;;;;;13.48;65.53;99661.75;6089819;23;20022;-72
2023/07/04 00:38:39;;;;;;;4.43;0.50;;;;;;;13.45;65.61;99665.38;6089935;23;20023;-73
2023/07/04 00:41:10;;;;;;;7.00;0.73;;;;;;;13.44;65.52;99665.47;6089299;23;20476;-72
2023/07/04 00:43:56;;;;;;;6.22;0.50;;;;;;;13.42;65.52;99668.13;6089631;23;20373;-72
2023/07/04 00:46:36;;;;;;;3.80;0.60;;;;;;;13.41;65.64;99670.84;6088087;23;20101;-72
2023/07/04 00:49:06;;;;;;;5.80;0.45;;;;;;;13.39;65.67;99665.66;6089431;23;20050;-71
2023/07/04 00:51:34;;;;;;;3.13;0.60;;;;;;;13.37;65.68;99664.03;6088261;23;20022;-72
2023/07/04 00:54:04;;;;;;;6.60;0.50;;;;;;;13.35;65.87;99673.75;6090195;23;20023;-72
2023/07/04 00:56:31;;;;;;;4.38;0.30;;;;;;;13.31;65.94;99669.56;6089577;23;20033;-72
2023/07/04 00:58:59;;;;;;;8.27;0.40;;;;;;;13.27;65.93;99664.47;6090924;23;20029;-72
2023/07/04 01:01:28;;;;;;;3.10;0.73;;;;;;;13.28;65.85;99674.03;6089399;23;20030;-72
2023/07/04 01:03:58;;;;;;;3.28;0.40;;;;;;;13.26;65.86;99673.28;6090868;23;20464;-72
2023/07/04 01:06:31;;;;;;;3.22;0.40;;;;;;;13.24;65.91;99674.25;6089669;23;20028;-72
2023/07/04 01:09:04;;;;;;;5.25;1.25;;;;;;;13.23;65.98;99676.03;6088353;23;20057;-72
2023/07/04 01:11:34;;;;;;;3.33;0.35;;;;;;;13.22;66.24;99671.69;6088696;23;20026;-72
2023/07/04 01:14:05;;;;;;;5.22;1.17;;;;;;;13.21;65.98;99677.84;6085827;23;20029;-72
2023/07/04 01:16:33;;;;;;;7.32;0.40;;;;;;;13.20;66.29;99678.75;6085020;23;20131;-72
2023/07/04 01:19:00;;;;;;;7.28;0.50;;;;;;;13.19;66.07;99676.22;6090571;23;20029;-72
2023/07/04 01:21:28;;;;;;;3.97;0.40;;;;;;;13.17;66.09;99668.41;6091596;23;20093;-72
2023/07/04 01:24:05;;;;;;;5.00;0.55;;;;;;;13.15;66.20;99680.78;6091026;23;20022;-72
2023/07/04 01:26:36;;;;;;;3.47;0.40;;;;;;;13.12;66.08;99680.91;6091108;23;20018;-72
2023/07/04 01:29:06;;;;;;;3.70;0.50;;;;;;;13.12;66.06;99688.78;6092321;23;20117;-72
2023/07/04 01:31:35;;;;;;;5.65;0.50;;;;;;;13.12;66.11;99690.53;6090830;23;20022;-72
2023/07/04 01:34:04;;;;;;;3.88;0.75;;;;;;;13.10;66.26;99685.38;6090950;23;20026;-72
2023/07/04 01:36:34;;;;;;;4.43;0.60;;;;;;;13.09;66.21;99683.69;6091086;23;20336;-72
2023/07/04 01:39:02;;;;;;;8.43;0.40;;;;;;;13.08;66.16;99694.22;6091700;23;20025;-72
2023/07/04 01:41:30;;;;;;;3.65;0.40;;;;;;;13.06;66.38;99689.03;6092108;23;20023;-72
2023/07/04 01:44:02;;;;;;;4.00;0.57;;;;;;;13.03;66.12;99687.44;6089932;23;20058;-72
2023/07/04 01:46:30;;;;;;;4.90;0.75;;;;;;;13.03;66.33;99686.56;6090710;23;20058;-73
2023/07/04 01:48:58;;;;;;;5.88;0.60;;;;;;;13.00;66.37;99694.56;6092217;23;20352;-72
2023/07/04 01:51:27;;;;;;;8.27;0.43;;;;;;;12.99;66.43;99691.09;6089762;23;20034;-73
2023/07/04 01:53:54;;;;;;;2.60;0.40;;;;;;;12.97;66.64;99690.31;6089660;23;20032;-72
2023/07/04 01:56:21;;;;;;;6.57;1.15;;;;;;;12.97;66.32;99697.31;6090330;23;20022;-72
2023/07/04 01:58:48;;;;;;;4.88;0.60;;;;;;;12.93;66.46;99691.38;6091814;23;20037;-72
2023/07/04 02:01:17;;;;;;;3.13;0.45;;;;;;;12.95;66.38;99704.41;6090735;23;20022;-72
2023/07/04 02:03:44;;;;;;;2.00;0.30;;;;;;;12.93;66.51;99701.88;6092538;23;20427;-72
2023/07/04 02:06:11;;;;;;;3.75;0.40;;;;;;;12.92;66.54;99704.53;6089656;23;20329;-72
2023/07/04 02:08:38;;;;;;;4.70;0.60;;;;;;;12.92;66.61;99707.16;6091955;23;20022;-73
2023/07/04 02:11:04;;;;;;;3.08;0.40;;;;;;;12.91;66.51;99702.84;6091417;23;20058;-72
2023/07/04 02:13:31;;;;;;;4.07;0.60;;;;;;;12.90;66.54;99707.25;6091208;23;20026;-72
2023/07/04 02:15:58;;;;;;;6.35;1.00;;;;;;;12.90;66.36;99706.41;6087926;23;20482;-72
2023/07/04 02:18:27;;;;;;;2.75;0.40;;;;;;;12.89;66.53;99704.69;6091090;23;20028;-73
2023/07/04 02:20:54;;;;;;;2.85;0.50;;;;;;;12.89;66.51;99720.41;6091211;23;20032;-72
2023/07/04 02:23:21;;;;;;;6.30;0.75;;;;;;;12.85;66.47;99719.69;6089608;23;20024;-73
2023/07/04 02:25:48;;;;;;;5.45;0.40;;;;;;;12.87;66.64;99725.75;6088565;23;20028;-72
2023/07/04 02:28:15;;;;;;;5.85;0.47;;;;;;;12.87;66.70;99724.88;6090353;23;20026;-72
2023/07/04 02:30:52;;;;;;;2.80;1.10;;;;;;;12.86;66.82;99736.28;6085369;23;20025;-73
2023/07/04 02:33:19;;;;;;;6.55;0.93;;;;;;;12.86;66.40;99733.66;6090158;23;20033;-72
2023/07/04 02:35:48;;;;;;;3.38;0.50;;;;;;;12.83;66.46;99737.25;6090696;23;20018;-72
2023/07/04 02:38:16;;;;;;;3.75;0.50;;;;;;;12.83;66.60;99732.91;6090115;23;20128;-72
2023/07/04 02:40:44;;;;;;;5.40;0.40;;;;;;;12.82;66.86;99736.41;6090678;23;20563;-76
2023/07/04 02:43:11;;;;;;;2.88;0.63;;;;;;;12.83;66.88;99738.13;6091642;23;20022;-75
2023/07/04 02:45:37;;;;;;;2.83;0.55;;;;;;;12.81;66.77;99737.34;6093479;23;20442;-75
2023/07/04 02:48:05;;;;;;;3.95;0.40;;;;;;;12.80;66.36;99743.47;6092575;23;20029;-76
2023/07/04 02:50:32;;;;;;;4.43;1.00;;;;;;;12.77;66.73;99735.75;6093063;23;20023;-75
2023/07/04 02:53:02;;;;;;;2.78;0.70;;;;;;;12.76;66.90;99736.69;6092805;23;20026;-75
2023/07/04 02:55:30;;;;;;;4.97;0.70;;;;;;;12.77;66.81;99743.63;6092227;23;20607;-72
2023/07/04 02:57:56;;;;;;;3.63;0.50;;;;;;;12.79;67.11;99747.03;6090459;23;20022;-71
2023/07/04 03:00:24;;;;;;;5.07;0.50;;;;;;;12.78;66.82;99753.19;6086028;23;20029;-72
2023/07/04 03:02:51;;;;;;;2.28;0.38;;;;;;;12.78;66.59;99762.84;6088913;23;20479;-71
2023/07/04 03:05:18;;;;;;;1.92;0.40;;;;;;;12.77;66.84;99755.88;6090945;23;20030;-72
2023/07/04 03:07:45;;;;;;;2.03;0.40;;;;;;;12.75;66.93;99763.81;6090174;23;20029;-72
2023/07/04 03:10:13;;;;;;;5.35;0.40;;;;;;;12.75;66.99;99766.44;6089917;23;20406;-72
2023/07/04 03:12:40;;;;;;;3.00;0.43;;;;;;;12.75;66.96;99753.34;6088992;23;20136;-72
2023/07/04 03:15:08;;;;;;;7.60;0.60;;;;;;;12.75;67.19;99761.19;6092336;23;20026;-72
2023/07/04 03:17:35;;;;;;;6.38;0.70;;;;;;;12.76;66.80;99765.50;6089555;23;20964;-72
2023/07/04 03:20:08;;;;;;;9.07;0.60;;;;;;;12.78;67.46;99771.53;6089550;23;20027;-74
2023/07/04 03:22:35;;;;;;;5.00;1.10;;;;;;;12.76;67.22;99764.66;6088389;23;20081;-72
2023/07/04 03:25:02;;;;;;;6.00;0.43;;;;;;;12.76;66.82;99768.13;6091351;23;20033;-72
2023/07/04 03:27:30;;;;;;;6.72;0.50;;;;;;;12.80;67.11;99755.75;6087741;23;20093;-73
2023/07/04 03:29:57;;;;;;;4.85;0.95;;;;;;;12.80;67.23;99764.44;6091779;23;20019;-72
2023/07/04 03:32:24;;;;;;;4.65;1.08;;;;;;;12.81;67.25;99757.47;6089363;23;20022;-73
2023/07/04 03:34:51;;;;;;;5.32;0.60;;;;;;;12.83;67.43;99764.34;6090381;23;20105;-73
2023/07/04 03:37:18;;;;;;;5.20;0.82;;;;;;;12.84;67.36;99773.06;6089800;23;20075;-72
2023/07/04 03:39:45;;;;;;;4.47;0.80;;;;;;;12.85;67.29;99781.75;6090158;23;20364;-72
2023/07/04 03:42:12;;;;;;;7.97;0.93;;;;;;;12.76;67.47;99754.19;6092060;23;20061;-72
2023/07/04 03:44:40;;;;;;;2.20;0.50;;;;;;;12.87;67.33;99764.22;6087774;23;20030;-72
2023/07/04 03:47:07;;;;;;;5.43;0.47;;;;;;;12.91;67.29;99776.25;6089790;23;20097;-72
2023/07/04 03:49:34;;;;;;;6.45;0.70;;;;;;;12.92;67.55;99777.94;6090510;23;20026;-72
2023/07/04 03:52:01;;;;;;;7.50;0.40;;;;;;;12.93;67.72;99772.63;6088599;23;20026;-72
2023/07/04 03:54:28;;;;;;;3.95;0.80;;;;;;;12.97;67.71;99773.34;6091231;23;20027;-72
2023/07/04 03:56:55;;;;;;;3.42;0.60;;;;;;;12.96;67.87;99775.13;6088657;23;20028;-72
2023/07/04 03:59:22;;;;;;;8.55;1.13;;;;;;;13.02;67.96;99774.00;6089440;23;20027;-72
2023/07/04 04:01:50;;;;;;;4.53;0.57;;;;;;;13.05;67.68;99785.19;6091160;23;20078;-73
2023/07/04 04:04:17;;;;;;;5.18;0.50;;;;;;;13.08;67.87;99789.44;6085635;23;20480;-71
2023/07/04 04:06:45;;;;;;;9.68;0.50;;;;;;;13.13;67.28;99779.63;6090784;23;20041;-72
2023/07/04 04:09:12;;;;;;;13.93;1.90;;;;;;;13.15;67.23;99784.78;6089492;23;20022;-72
2023/07/04 04:11:39;;;;;;;10.52;0.70;;;;;;;13.18;67.33;99785.50;6090404;23;20141;-72
2023/07/04 04:14:05;;;;;;;8.90;0.60;;;;;;;13.26;67.40;99799.16;6088572;23;20098;-73
2023/07/04 04:16:32;;;;;;;7.57;0.60;;;;;;;13.32;67.52;99791.91;6090331;23;20028;-73
2023/07/04 04:19:01;;;;;;;12.95;0.90;;;;;;;13.38;67.81;99789.03;6088830;23;20074;-73
2023/07/04 04:21:28;;;;;;;3.72;0.40;;;;;;;13.42;67.37;99783.56;6090510;23;20457;-72
2023/07/04 04:23:55;;;;;;;6.03;0.60;;;;;;;13.49;67.31;99800.75;6089143;23;20054;-73
2023/07/04 04:26:23;;;;;;;5.63;0.60;;;;;;;13.55;67.17;99794.34;6088044;23;20074;-72
2023/07/04 04:28:50;;;;;;;6.75;0.52;;;;;;;13.63;67.11;99800.09;6089091;23;20049;-72
2023/07/04 04:31:18;;;;;;;4.72;0.40;;;;;;;13.71;67.27;99800.56;6089206;23;20050;-72
2023/07/04 04:33:45;;;;;;;4.28;0.43;;;;;;;13.80;67.26;99803.69;6090431;23;20027;-73
2023/07/04 04:36:16;;;;;;;7.28;0.55;;;;;;;13.88;67.03;99796.31;6087720;23;20472;-73
2023/07/04 04:38:43;;;;;;;4.78;0.60;;;;;;;13.98;67.12;99794.94;6089573;23;20093;-73
2023/07/04 04:41:10;;;;;;;9.10;1.02;;;;;;;14.07;66.89;99793.66;6089918;23;20033;-73
2023/07/04 04:43:37;;;;;;;5.82;0.50;;;;;;;14.17;66.62;99789.63;6090953;23;20317;-73
2023/07/04 04:46:04;;;;;;;5.25;0.52;;;;;;;14.28;66.71;99794.38;6086766;23;20464;-73
2023/07/04 04:48:35;;;;;;;6.65;0.50;;;;;;;14.34;66.17;99794.06;6090350;23;20033;-72
2023/07/04 04:51:07;;;;;;;5.72;0.60;;;;;;;14.49;66.27;99792.47;6090343;23;20352;-73
2023/07/04 04:53:36;;;;;;;5.72;0.45;;;;;;;14.59;65.86;99791.09;6091134;23;20030;-74
2023/07/04 04:56:03;;;;;;;6.13;0.63;;;;;;;14.70;65.48;99795.81;6092958;23;20026;-73
2023/07/04 04:58:30;;;;;;;5.75;0.50;;;;;;;14.81;65.63;99798.75;6090654;23;20033;-72
2023/07/04 05:00:57;;;;;;;6.95;0.73;;;;;;;14.92;65.32;99795.56;6091970;23;20027;-72
2023/07/04 05:03:25;;;;;;;6.03;0.60;;;;;;;15.02;64.74;99797.59;6090077;23;20026;-73
2023/07/04 05:05:52;;;;;;;2.90;0.57;;;;;;;15.14;64.58;99797.91;6092206;23;20030;-74
2023/07/04 05:08:18;;;;;;;12.10;0.75;;;;;;;15.24;64.31;99797.31;6089811;23;20023;-73
2023/07/04 05:10:47;;;;;;;12.73;1.52;;;;;;;15.36;63.88;99798.44;6090341;23;20029;-72
2023/07/04 05:13:14;;;;;;;6.32;0.82;;;;;;;15.45;63.74;99803.25;6091596;23;20025;-73
2023/07/04 05:15:41;;;;;;;5.28;0.50;;;;;;;15.58;63.30;99802.56;6090201;23;20031;-73
2023/07/04 05:18:07;;;;;;;5.18;0.70;;;;;;;15.68;63.08;99807.28;6090019;23;20025;-74
2023/07/04 05:20:34;;;;;;;8.45;0.63;;;;;;;15.78;62.66;99810.25;6089349;23;20097;-73
2023/07/04 05:23:02;;;;;;;7.53;0.75;;;;;;;15.89;62.41;99805.22;6092335;23;20023;-73
2023/07/04 05:25:29;;;;;;;6.95;0.38;;;;;;;16.01;62.43;99808.13;6091572;23;20026;-73
2023/07/04 05:27:57;;;;;;;5.82;0.50;;;;;;;16.11;61.44;99814.56;6092464;23;20097;-73
2023/07/04 05:30:25;;;;;;;4.55;0.30;;;;;;;16.21;61.53;99815.72;6092462;23;20025;-74
2023/07/04 05:32:51;;;;;;;4.90;0.63;;;;;;;16.31;60.99;99813.44;6092101;23;20026;-73
2023/07/04 05:35:19;;;;;;;3.38;0.40;;;;;;;16.42;60.65;99811.00;6089569;23;20029;-73
2023/07/04 05:37:46;;;;;;;5.22;0.50;;;;;;;16.51;60.63;99812.28;6089719;23;20089;-73
2023/07/04 05:40:13;;;;;;;6.93;0.40;;;;;;;16.61;59.79;99810.78;6091960;23;20462;-76
2023/07/04 05:42:40;;;;;;;5.15;0.40;;;;;;;16.69;59.94;99816.47;6089134;23;20861;-74
2023/07/04 05:45:09;;;;;;;4.05;0.63;;;;;;;16.77;59.88;99821.31;6091358;23;20029;-73
2023/07/04 05:47:36;;;;;;;7.97;0.88;;;;;;;16.84;59.25;99822.63;6091650;23;20018;-73
2023/07/04 05:50:03;;;;;;;6.38;0.50;;;;;;;16.92;58.85;99822.19;6092230;23;20093;-73
2023/07/04 05:52:31;;;;;;;6.55;0.52;;;;;;;16.99;59.32;99824.38;6088463;23;20453;-73
2023/07/04 05:55:00;;;;;;;7.25;0.47;;;;;;;17.03;59.05;99820.59;6092574;23;20351;-73
2023/07/04 05:57:30;;;;;;;3.85;0.40;;;;;;;17.07;58.62;99808.06;6088704;23;20464;-73
2023/07/04 05:59:57;;;;;;;2.83;0.32;;;;;;;17.11;58.63;99821.94;6090787;23;20022;-73
2023/07/04 06:02:26;;;;;;;6.25;0.50;;;;;;;17.13;58.60;99818.25;6091038;23;20500;-72
2023/07/04 06:04:53;;;;;;;8.40;0.70;;;;;;;17.17;57.79;99825.03;6092137;23;20031;-73
2023/07/04 06:07:20;;;;;;;7.55;0.43;;;;;;;17.20;57.82;99816.09;6091702;23;20032;-73
2023/07/04 06:09:47;;;;;;;7.55;0.70;;;;;;;17.24;57.63;99820.22;6093763;23;20022;-73
2023/07/04 06:12:13;;;;;;;5.82;0.63;;;;;;;17.26;56.75;99824.47;6091566;23;20053;-73
2023/07/04 06:14:40;;;;;;;7.80;0.90;;;;;;;17.27;57.38;99825.31;6093158;23;20026;-73
2023/07/04 06:17:07;;;;;;;6.35;0.57;;;;;;;17.28;57.34;99827.88;6091995;23;20019;-73
2023/07/04 06:19:36;;;;;;;5.65;0.50;;;;;;;17.34;57.32;99828.44;6091339;23;20527;-73
2023/07/04 06:22:05;;;;;;;8.05;0.95;;;;;;;17.36;57.11;99826.53;6091742;23;20138;-74
2023/07/04 06:24:32;;;;;;;4.75;0.50;;;;;;;17.38;57.24;99835.22;6091236;23;20054;-73
2023/07/04 06:26:59;;;;;;;5.07;0.50;;;;;;;17.39;56.86;99840.41;6092612;23;20460;-73
2023/07/04 06:29:26;;;;;;;5.78;0.50;;;;;;;17.39;57.29;99829.88;6091805;23;20025;-72
2023/07/04 06:31:53;;;;;;;5.80;0.40;;;;;;;17.42;57.14;99842.03;6091185;23;20023;-73
2023/07/04 06:34:20;;;;;;;7.82;0.40;;;;;;;17.43;56.89;99849.00;6091270;23;20022;-73
2023/07/04 06:36:49;;;;;;;8.70;0.57;;;;;;;17.42;56.24;99837.59;6086745;23;20032;-72
2023/07/04 06:39:16;;;;;;;2.45;0.40;;;;;;;17.43;56.86;99830.50;6087677;23;20022;-72
2023/07/04 06:41:43;;;;;;;3.25;0.50;;;;;;;17.43;56.62;99841.06;6090813;23;20072;-72
2023/07/04 06:44:10;;;;;;;6.93;0.40;;;;;;;17.44;56.38;99840.97;6090916;23;20086;-72
2023/07/04 06:46:37;;;;;;;6.57;0.65;;;;;;;17.45;56.50;99842.69;6091949;23;20364;-72
2023/07/04 06:49:05;;;;;;;6.00;0.50;;;;;;;17.46;56.41;99840.88;6090473;23;20085;-72
2023/07/04 06:51:33;;;;;;;5.88;0.93;;;;;;;17.46;56.37;99841.72;6092018;23;20022;-73
2023/07/04 06:54:03;;;;;;;3.95;0.55;;;;;;;17.47;56.39;99845.22;6091217;23;20078;-73
2023/07/04 06:56:30;;;;;;;7.88;0.60;;;;;;;17.49;55.74;99848.59;6091623;23;20523;-73
2023/07/04 06:58:57;;;;;;;6.05;0.50;;;;;;;17.51;55.70;99847.56;6091144;23;20026;-73
2023/07/04 07:01:26;;;;;;;4.40;0.40;;;;;;;17.55;56.04;99853.50;6088635;23;20026;-73
2023/07/04 07:03:54;;;;;;;2.58;0.40;;;;;;;17.60;55.47;99851.44;6090066;23;20026;-71
2023/07/04 07:06:21;;;;;;;2.80;0.40;;;;;;;17.67;55.09;99863.31;6089619;23;20032;-71
2023/07/04 07:08:48;;;;;;;5.30;0.50;;;;;;;17.71;55.12;99858.69;6089150;23;20337;-71
2023/07/04 07:11:19;;;;;;;7.13;0.47;;;;;;;17.76;54.94;99861.91;6089534;23;20058;-72
2023/07/04 07:13:47;;;;;;;4.70;0.68;;;;;;;17.79;54.88;99860.88;6085053;23;20026;-71
2023/07/04 07:16:16;;;;;;;1.25;0.30;;;;;;;17.88;55.17;99865.59;6092145;23;20044;-71
2023/07/04 07:18:44;;;;;;;1.40;0.30;;;;;;;17.94;54.89;99873.13;6088317;23;20033;-71
2023/07/04 07:21:13;;;;;;;5.22;0.70;;;;;;;17.99;55.05;99878.97;6089202;23;20073;-71
2023/07/04 07:23:41;;;;;;;3.90;0.40;;;;;;;18.03;54.82;99875.19;6087746;23;20022;-71
2023/07/04 07:26:10;;;;;;;3.70;0.30;;;;;;;18.09;54.31;99872.13;6090702;23;20026;-72
2023/07/04 07:28:40;;;;;;;4.90;0.43;;;;;;;18.08;53.81;99856.41;6090315;23;20025;-71
2023/07/04 07:31:09;;;;;;;3.63;0.65;;;;;;;18.15;53.64;99866.44;6089743;23;20023;-71
2023/07/04 07:33:37;;;;;;;6.35;0.60;;;;;;;18.19;52.75;99867.97;6090326;23;20444;-71
2023/07/04 07:36:13;;;;;;;3.83;0.40;;;;;;;18.23;52.65;99873.91;6090187;23;20026;-71
2023/07/04 07:38:40;;;;;;;5.95;0.50;;;;;;;18.28;53.60;99870.97;6089699;23;20029;-71
2023/07/04 07:41:07;;;;;;;4.93;1.13;;;;;;;18.33;53.14;99867.06;6086910;23;20046;-71
2023/07/04 07:43:34;;;;;;;3.15;0.40;;;;;;;18.38;52.89;99867.59;6091060;23;20026;-71
2023/07/04 07:46:03;;;;;;;6.57;0.98;;;;;;;18.45;53.12;99875.16;6089673;23;20026;-71
2023/07/04 07:48:30;;;;;;;5.80;0.35;;;;;;;18.48;53.52;99873.16;6089990;23;20030;-72
2023/07/04 07:50:56;;;;;;;5.68;0.30;;;;;;;18.55;53.35;99870.94;6089371;23;20473;-71
2023/07/04 07:53:23;;;;;;;14.30;1.38;;;;;;;18.58;53.16;99866.28;6090559;23;20023;-71
2023/07/04 07:55:50;;;;;;;4.43;0.65;;;;;;;18.66;53.01;99869.28;6090092;23;20032;-71
2023/07/04 07:58:17;;;;;;;6.22;0.30;;;;;;;18.69;52.82;99860.28;6089747;23;20029;-71
2023/07/04 08:00:44;;;;;;;3.90;0.40;;;;;;;18.81;52.74;99871.88;6089587;23;20019;-72
2023/07/04 08:03:12;;;;;;;1.80;0.30;;;;;;;18.85;52.05;99868.09;6090099;23;20028;-71
2023/07/04 08:05:40;;;;;;;3.38;0.57;;;;;;;18.88;52.31;99868.72;6088246;23;20027;-71
2023/07/04 08:08:08;;;;;;;3.90;0.30;;;;;;;18.91;51.95;99867.69;6086292;23;20475;-71
2023/07/04 08:10:39;;;;;;;4.50;0.50;;;;;;;18.93;52.05;99865.78;6086836;23;20022;-71
2023/07/04 08:13:07;;;;;;;2.53;0.65;;;;;;;18.94;52.00;99875.41;6087341;23;20025;-71
2023/07/04 08:15:33;;;;;;;5.90;0.80;;;;;;;18.96;51.78;99857.63;6085408;23;20053;-71
2023/07/04 08:18:04;;;;;;;4.30;0.30;;;;;;;18.96;51.46;99855.00;6086000;23;20025;-70
2023/07/04 08:20:32;;;;;;;2.85;0.40;;;;;;;19.02;51.65;99865.16;6084143;23;20102;-71
2023/07/04 08:22:59;;;;;;;6.85;0.30;;;;;;;19.05;51.92;99854.34;6087520;23;20029;-71
2023/07/04 08:25:26;;;;;;;2.20;0.20;;;;;;;19.10;52.06;99862.84;6086423;23;20036;-71
2023/07/04 08:27:54;;;;;;;5.78;0.30;;;;;;;19.15;51.30;99864.31;6086587;23;20048;-71
2023/07/04 08:30:22;;;;;;;4.63;0.60;;;;;;;19.19;50.57;99866.66;6083755;23;20022;-71
2023/07/04 08:32:48;;;;;;;3.50;0.40;;;;;;;19.23;50.00;99861.97;6086416;23;20037;-71
2023/07/04 08:35:15;;;;;;;4.18;0.25;;;;;;;19.26;50.28;99869.72;6086432;23;20023;-71
2023/07/04 08:37:44;;;;;;;5.65;0.30;;;;;;;19.29;49.82;99869.50;6086914;23;20329;-71
2023/07/04 08:40:13;;;;;;;4.93;0.30;;;;;;;19.21;50.22;99850.63;6085067;23;20023;-71
2023/07/04 08:42:40;;;;;;;7.65;0.40;;;;;;;19.32;50.43;99858.69;6086950;23;20025;-72
2023/07/04 08:45:12;;;;;;;2.50;0.32;;;;;;;19.38;49.99;99871.53;6085801;23;20026;-71
2023/07/04 08:47:41;;;;;;;4.05;0.38;;;;;;;19.42;50.24;99862.41;6086848;23;20344;-72
2023/07/04 08:50:15;;;;;;;2.50;0.40;;;;;;;19.48;50.27;99863.78;6088243;23;20482;-71
2023/07/04 08:52:48;;;;;;;4.28;0.40;;;;;;;19.53;50.40;99870.44;6085048;23;20022;-71
2023/07/04 08:55:16;;;;;;;9.38;0.30;;;;;;;19.59;50.13;99869.16;6084984;23;20026;-71
2023/07/04 08:57:49;;;;;;;3.75;0.30;;;;;;;19.62;49.63;99865.47;6083855;23;20073;-71
2023/07/04 09:00:24;;;;;;;4.40;0.30;;;;;;;19.67;50.04;99852.78;6086321;23;20023;-71
2023/07/04 09:03:13;;;;;;;6.97;0.50;;;;;;;19.75;50.30;99861.00;6085912;23;20470;-71
2023/07/04 09:05:50;;;;;;;2.10;0.30;;;;;;;19.79;50.63;99859.84;6087045;23;20033;-71
2023/07/04 09:08:43;;;;;;;4.32;0.30;;;;;;;19.86;49.46;99866.38;6084770;23;20033;-71
2023/07/04 09:11:13;;;;;;;1.95;0.30;;;;;;;19.90;49.03;99864.38;6086479;23;20034;-71
2023/07/04 09:13:42;;;;;;;3.33;0.45;;;;;;;19.91;48.68;99864.25;6085211;23;20893;-72
2023/07/04 09:16:12;;;;;;;3.65;0.30;;;;;;;19.80;48.70;99836.84;6088972;23;20041;-71
2023/07/04 09:18:49;;;;;;;2.25;0.30;;;;;;;20.00;48.86;99865.41;6083194;23;20023;-72
2023/07/04 09:21:17;;;;;;;1.95;0.28;;;;;;;20.04;48.41;99866.03;6087863;23;20030;-71
2023/07/04 09:23:47;;;;;;;2.92;0.30;;;;;;;20.08;48.56;99848.94;6083755;23;20026;-71
2023/07/04 09:26:17;;;;;;;4.22;0.30;;;;;;;20.11;48.03;99846.91;6086659;23;20037;-71
2023/07/04 09:28:46;;;;;;;3.83;0.30;;;;;;;20.16;48.38;99846.59;6086124;23;20057;-71
2023/07/04 09:31:25;;;;;;;3.65;0.43;;;;;;;20.20;48.36;99850.69;6087970;23;20023;-71
2023/07/04 09:33:54;;;;;;;3.72;0.30;;;;;;;20.25;46.92;99853.00;6087045;23;20042;-71
2023/07/04 09:36:26;;;;;;;5.22;0.40;;;;;;;20.29;47.39;99842.06;6084918;23;20026;-71
2023/07/04 09:38:57;;;;;;;4.05;0.20;;;;;;;20.34;47.27;99849.69;6089967;23;20019;-71
2023/07/04 09:41:26;;;;;;;3.75;0.40;;;;;;;20.39;46.81;99848.38;6087208;23;20341;-71
2023/07/04 09:43:54;;;;;;;5.40;1.05;;;;;;;20.43;46.85;99841.91;6089395;23;20022;-71
2023/07/04 09:46:26;;;;;;;1.30;0.35;;;;;;;20.51;46.72;99859.03;6088877;23;20026;-71
2023/07/04 09:48:53;;;;;;;2.90;0.30;;;;;;;20.55;46.57;99863.19;6089343;23;20041;-71
2023/07/04 09:51:24;;;;;;;1.42;0.20;;;;;;;20.60;46.44;99866.34;6089254;23;20353;-71
2023/07/04 09:53:51;;;;;;;5.22;0.47;;;;;;;20.64;46.73;99863.34;6090351;23;20124;-71
2023/07/04 09:56:28;;;;;;;1.65;0.35;;;;;;;20.70;45.95;99871.81;6090223;23;20056;-71
2023/07/04 09:59:13;;;;;;;3.55;0.30;;;;;;;20.75;46.16;99861.69;6091200;23;20050;-71
2023/07/04 10:01:41;;;;;;;5.00;0.52;;;;;;;20.77;45.62;99868.56;6091707;23;20024;-71
2023/07/04 10:04:11;;;;;;;2.83;0.40;;;;;;;20.74;46.38;99849.38;6091822;23;20027;-71
2023/07/04 10:06:38;;;;;;;6.32;0.30;;;;;;;20.87;46.44;99866.94;6092005;23;20029;-71
2023/07/04 10:09:15;;;;;;;8.77;0.30;;;;;;;20.89;46.11;99872.97;6092147;23;20061;-71
2023/07/04 10:11:43;;;;;;;5.13;0.30;;;;;;;20.92;45.92;99871.03;6090566;23;20097;-72
2023/07/04 10:14:13;;;;;;;1.95;0.30;;;;;;;20.92;46.43;99877.22;6091407;23;20026;-72
2023/07/04 10:16:47;;;;;;;7.30;0.30;;;;;;;20.92;46.20;99873.69;6091539;23;20022;-71
2023/07/04 10:19:16;;;;;;;6.00;0.47;;;;;;;20.91;45.86;99869.34;6092194;23;20385;-71
2023/07/04 10:21:45;;;;;;;9.68;0.85;;;;;;;20.93;45.47;99878.03;6091676;23;20464;-71
2023/07/04 10:24:16;;;;;;;1.60;0.38;;;;;;;20.92;45.80;99865.72;6090894;23;20028;-72
2023/07/04 10:26:46;;;;;;;3.10;0.20;;;;;;;20.89;45.51;99867.66;6092936;23;20036;-73
2023/07/04 10:29:14;;;;;;;2.40;0.40;;;;;;;20.89;45.92;99866.81;6090140;23;20029;-73
2023/07/04 10:31:42;;;;;;;1.90;0.32;;;;;;;20.86;45.73;99878.50;6090966;23;20033;-72
2023/07/04 10:34:15;;;;;;;6.68;0.40;;;;;;;20.84;45.57;99864.50;6092230;23;20029;-73
2023/07/04 10:36:44;;;;;;;4.55;0.60;;;;;;;20.82;45.98;99862.94;6090752;23;20360;-73
2023/07/04 10:39:14;;;;;;;1.45;0.25;;;;;;;20.75;46.53;99851.94;6090791;23;20028;-73
2023/07/04 10:41:50;;;;;;;3.72;0.30;;;;;;;20.79;46.59;99864.00;6091957;23;20097;-73
2023/07/04 10:44:23;;;;;;;1.30;0.20;;;;;;;20.79;46.98;99866.66;6090094;23;20054;-73
2023/07/04 10:46:57;;;;;;;4.20;0.30;;;;;;;20.74;47.39;99868.81;6091188;23;20033;-73
2023/07/04 10:49:27;;;;;;;8.88;0.30;;;;;;;20.77;46.75;99873.88;6089362;23;20070;-73
2023/07/04 10:52:01;;;;;;;4.63;0.30;;;;;;;20.75;46.46;99881.13;6091299;23;20030;-73
2023/07/04 10:54:28;;;;;;;3.05;0.45;;;;;;;20.73;46.62;99888.34;6092675;23;20026;-73
2023/07/04 10:57:03;;;;;;;2.95;0.43;;;;;;;20.72;46.06;99886.66;6089705;23;20102;-73
2023/07/04 10:59:36;;;;;;;6.50;0.20;;;;;;;20.70;46.47;99883.28;6090090;23;20048;-73
2023/07/04 11:02:13;;;;;;;3.38;0.57;;;;;;;20.65;46.27;99886.25;6092226;23;20351;-72
2023/07/04 11:04:42;;;;;;;4.57;0.98;;;;;;;20.64;46.45;99887.25;6089787;23;20527;-73
2023/07/04 11:07:18;;;;;;;7.28;0.30;;;;;;;20.65;46.01;99896.03;6081174;23;20022;-73
2023/07/04 11:09:47;;;;;;;6.35;0.50;;;;;;;20.55;46.50;99879.09;6089526;23;20022;-72
2023/07/04 11:12:17;;;;;;;3.55;0.32;;;;;;;20.58;46.27;99897.47;6089142;23;20033;-71
2023/07/04 11:14:47;;;;;;;4.18;0.30;;;;;;;20.61;46.31;99899.88;6087934;23;20025;-71
2023/07/04 11:17:18;;;;;;;2.42;0.20;;;;;;;20.56;46.41;99880.81;6087829;23;20026;-71
2023/07/04 11:19:57;;;;;;;2.20;0.20;;;;;;;20.60;45.96;99893.72;6091408;23;20082;-71
2023/07/04 11:22:39;;;;;;;4.20;0.30;;;;;;;20.60;46.62;99891.06;6090232;23;20022;-71
2023/07/04 11:25:32;;;;;;;2.40;0.30;;;;;;;20.61;46.51;99890.13;6085054;23;20109;-71
2023/07/04 11:28:25;;;;;;;1.65;0.22;;;;;;;20.61;46.53;99883.97;6090282;23;20027;-70
2023/07/04 11:31:07;;;;;;;4.13;0.20;;;;;;;20.61;46.17;99894.59;6090032;23;20032;-70
2023/07/04 11:33:42;;;;;;;5.88;0.20;;;;;;;20.59;46.39;99886.72;6090544;23;20026;-71
2023/07/04 11:36:18;;;;;;;1.77;0.20;;;;;;;20.57;46.49;99883.34;6088779;23;20023;-70
2023/07/04 11:38:52;;;;;;;3.38;0.30;;;;;;;20.50;46.09;99873.28;6089096;23;20026;-71
2023/07/04 11:41:27;;;;;;;1.88;0.68;;;;;;;20.59;45.90;99881.41;6087545;23;20102;-70
2023/07/04 11:43:56;;;;;;;5.70;0.40;;;;;;;20.60;46.13;99879.59;6089924;23;20019;-71